XBFGP MMPQ-MMVA
Flight info
| Callsign | XBFGP |
|---|---|
| Flight time | 0h 16m |
| Altitude | 12500 |
| Route | MMPQ DCT MMVA |
| Aircraft | TBM9/L-V/N |
Departure
| Time | 2026-04-20 06:18 |
|---|---|
| Airport | Palenque International Airport (MMPQ) |
Arrival
| Time | 2026-04-20 06:34 |
|---|---|
| Airport | Carlos Rovirosa Pérez International Airport (MMVA) |
| Time | Latitude | Longitude | Altitude | Speed | Heading |
|---|---|---|---|---|---|
| 2026-04-20 06:13 | 17.53568 | -92.01557 | 146 ft | 0 kts | 103° |
| 2026-04-20 06:15 | 17.53582 | -92.01554 | 143 ft | 7 kts | 248° |
| 2026-04-20 06:15 | 17.53504 | -92.01652 | 143 ft | 36 kts | 204° |
| 2026-04-20 06:15 | 17.53437 | -92.01677 | 143 ft | 0 kts | 193° |
| 2026-04-20 06:17 | 17.53404 | -92.01682 | 144 ft | 23 kts | 180° |
| 2026-04-20 06:17 | 17.53248 | -92.01351 | 148 ft | 80 kts | 105° |
| 2026-04-20 06:17 | 17.53079 | -92.00686 | 262 ft | 99 kts | 105° |
| 2026-04-20 06:18 | 17.52906 | -91.99974 | 533 ft | 97 kts | 104° |
| 2026-04-20 06:18 | 17.52758 | -91.99235 | 978 ft | 111 kts | 99° |
| 2026-04-20 06:18 | 17.52634 | -91.98372 | 1397 ft | 132 kts | 98° |
| 2026-04-20 06:18 | 17.52482 | -91.97333 | 1783 ft | 156 kts | 98° |
| 2026-04-20 06:19 | 17.52291 | -91.96139 | 2180 ft | 174 kts | 96° |
| 2026-04-20 06:19 | 17.52559 | -91.94888 | 2602 ft | 183 kts | 54° |
| 2026-04-20 06:19 | 17.53577 | -91.94121 | 3097 ft | 187 kts | 16° |
| 2026-04-20 06:19 | 17.54871 | -91.94228 | 3577 ft | 194 kts | 339° |
| 2026-04-20 06:20 | 17.55869 | -91.95194 | 4053 ft | 203 kts | 305° |
| 2026-04-20 06:20 | 17.56521 | -91.96518 | 4545 ft | 207 kts | 300° |
| 2026-04-20 06:20 | 17.57019 | -91.97929 | 5023 ft | 212 kts | 288° |
| 2026-04-20 06:20 | 17.57362 | -91.99446 | 5504 ft | 215 kts | 286° |
| 2026-04-20 06:21 | 17.57700 | -92.00980 | 5991 ft | 218 kts | 286° |
| 2026-04-20 06:21 | 17.58047 | -92.02536 | 6482 ft | 220 kts | 286° |
| 2026-04-20 06:21 | 17.58398 | -92.04101 | 6951 ft | 222 kts | 286° |
| 2026-04-20 06:21 | 17.58762 | -92.05683 | 7420 ft | 224 kts | 286° |
| 2026-04-20 06:22 | 17.59133 | -92.07272 | 7896 ft | 224 kts | 286° |
| 2026-04-20 06:22 | 17.59513 | -92.08861 | 8385 ft | 225 kts | 286° |
| 2026-04-20 06:22 | 17.59898 | -92.10450 | 8875 ft | 225 kts | 286° |
| 2026-04-20 06:22 | 17.60269 | -92.12041 | 9365 ft | 225 kts | 283° |
| 2026-04-20 06:23 | 17.60618 | -92.13636 | 9929 ft | 221 kts | 285° |
| 2026-04-20 06:23 | 17.61153 | -92.15095 | 10615 ft | 209 kts | 299° |
| 2026-04-20 06:23 | 17.61841 | -92.16404 | 11307 ft | 201 kts | 302° |
| 2026-04-20 06:23 | 17.62600 | -92.17595 | 12007 ft | 193 kts | 307° |
| 2026-04-20 06:24 | 17.63322 | -92.18726 | 12710 ft | 186 kts | 303° |
| 2026-04-20 06:24 | 17.64000 | -92.19890 | 13198 ft | 196 kts | 303° |
| 2026-04-20 06:24 | 17.64772 | -92.21210 | 13215 ft | 227 kts | 303° |
| 2026-04-20 06:24 | 17.65645 | -92.22690 | 13221 ft | 248 kts | 303° |
| 2026-04-20 06:25 | 17.66576 | -92.24283 | 13221 ft | 263 kts | 303° |
| 2026-04-20 06:25 | 17.67543 | -92.25944 | 13257 ft | 270 kts | 303° |
| 2026-04-20 06:25 | 17.68526 | -92.27634 | 13319 ft | 274 kts | 302° |
| 2026-04-20 06:25 | 17.69537 | -92.29370 | 13201 ft | 282 kts | 303° |
| 2026-04-20 06:26 | 17.70567 | -92.31138 | 13080 ft | 287 kts | 303° |
| 2026-04-20 06:26 | 17.71613 | -92.32932 | 12959 ft | 289 kts | 303° |
| 2026-04-20 06:26 | 17.72661 | -92.34740 | 12834 ft | 290 kts | 303° |
| 2026-04-20 06:26 | 17.73711 | -92.36549 | 12708 ft | 290 kts | 303° |
| 2026-04-20 06:27 | 17.74763 | -92.38361 | 12584 ft | 290 kts | 303° |
| 2026-04-20 06:27 | 17.75801 | -92.40148 | 12524 ft | 288 kts | 302° |
| 2026-04-20 06:27 | 17.76834 | -92.41934 | 12522 ft | 285 kts | 302° |
| 2026-04-20 06:27 | 17.77860 | -92.43703 | 12517 ft | 283 kts | 302° |
| 2026-04-20 06:28 | 17.78881 | -92.45463 | 12514 ft | 282 kts | 303° |
| 2026-04-20 06:28 | 17.79900 | -92.47217 | 12511 ft | 281 kts | 302° |
| 2026-04-20 06:28 | 17.80914 | -92.48964 | 12510 ft | 280 kts | 302° |
| 2026-04-20 06:28 | 17.81927 | -92.50713 | 12506 ft | 280 kts | 302° |
| 2026-04-20 06:29 | 17.82937 | -92.52454 | 12510 ft | 280 kts | 302° |
| 2026-04-20 06:29 | 17.83948 | -92.54198 | 12508 ft | 279 kts | 302° |
| 2026-04-20 06:29 | 17.84956 | -92.55938 | 12510 ft | 279 kts | 302° |
| 2026-04-20 06:29 | 17.85963 | -92.57677 | 12507 ft | 279 kts | 302° |
| 2026-04-20 06:30 | 17.86969 | -92.59416 | 12511 ft | 278 kts | 302° |
| 2026-04-20 06:30 | 17.87975 | -92.61153 | 12509 ft | 278 kts | 302° |
| 2026-04-20 06:30 | 17.88980 | -92.62890 | 12508 ft | 278 kts | 302° |
| 2026-04-20 06:30 | 17.89973 | -92.64605 | 12510 ft | 278 kts | 302° |
| 2026-04-20 06:31 | 17.90984 | -92.66351 | 12312 ft | 285 kts | 302° |
| 2026-04-20 06:31 | 17.92043 | -92.68164 | 11827 ft | 296 kts | 303° |
| 2026-04-20 06:31 | 17.93131 | -92.70025 | 11351 ft | 302 kts | 302° |
| 2026-04-20 06:31 | 17.94220 | -92.71923 | 10878 ft | 304 kts | 302° |
| 2026-04-20 06:32 | 17.95312 | -92.73836 | 10417 ft | 305 kts | 302° |
| 2026-04-20 06:32 | 17.96412 | -92.75737 | 9961 ft | 296 kts | 303° |
| 2026-04-20 06:32 | 17.97287 | -92.77177 | 9272 ft | 182 kts | 306° |
| 2026-04-20 06:32 | 17.97897 | -92.78056 | 8756 ft | 122 kts | 318° |
| 2026-04-20 06:33 | 17.98473 | -92.78504 | 8151 ft | 97 kts | 343° |
| 2026-04-20 06:33 | 17.98966 | -92.78211 | 7153 ft | 104 kts | 47° |
| 2026-04-20 06:33 | 17.99421 | -92.77911 | 6950 ft | 50 kts | 33° |
| 2026-04-20 06:33 | 17.99559 | -92.77811 | 5336 ft | 8 kts | 353° |
| 2026-04-20 06:34 | 17.99351 | -92.78445 | 2770 ft | 211 kts | 282° |
| 2026-04-20 06:34 | 17.99307 | -92.78963 | 2465 ft | 156 kts | 275° |
| 2026-04-20 06:34 | 17.99039 | -92.79793 | 47 ft | 38 kts | 255° |
| 2026-04-20 06:35 | 17.98918 | -92.80120 | 59 ft | 13 kts | 261° |
| 2026-04-20 06:35 | 17.98909 | -92.80112 | 59 ft | 6 kts | 272° |
| 2026-04-20 06:35 | 17.98883 | -92.80232 | 60 ft | 47 kts | 261° |
| 2026-04-20 06:35 | 17.98846 | -92.80546 | 57 ft | 1 kts | 86° |